sensor_id;sensor_type;location;lat;lon;timestamp;P1;durP1;ratioP1;P2;durP2;ratioP2
59169;SDS011;52474;52.236;5.114;2023-03-14T00:01:57;12.93;;;2.28;;
59169;SDS011;52474;52.236;5.114;2023-03-14T00:04:23;10.15;;;2.55;;
59169;SDS011;52474;52.236;5.114;2023-03-14T00:06:49;10.88;;;2.38;;
59169;SDS011;52474;52.236;5.114;2023-03-14T00:09:16;16.52;;;3.17;;
59169;SDS011;52474;52.236;5.114;2023-03-14T00:11:42;10.75;;;1.85;;
59169;SDS011;52474;52.236;5.114;2023-03-14T00:14:08;11.82;;;2.08;;
59169;SDS011;52474;52.236;5.114;2023-03-14T00:16:34;14.57;;;2.33;;
59169;SDS011;52474;52.236;5.114;2023-03-14T00:18:59;8.48;;;1.70;;
59169;SDS011;52474;52.236;5.114;2023-03-14T00:21:25;10.57;;;2.03;;
59169;SDS011;52474;52.236;5.114;2023-03-14T00:23:51;12.20;;;1.95;;
59169;SDS011;52474;52.236;5.114;2023-03-14T00:26:18;7.70;;;1.80;;
59169;SDS011;52474;52.236;5.114;2023-03-14T00:28:46;10.18;;;1.77;;
59169;SDS011;52474;52.236;5.114;2023-03-14T00:31:13;10.35;;;1.95;;
59169;SDS011;52474;52.236;5.114;2023-03-14T00:33:40;15.85;;;2.00;;
59169;SDS011;52474;52.236;5.114;2023-03-14T00:36:11;8.00;;;2.67;;
59169;SDS011;52474;52.236;5.114;2023-03-14T00:38:39;7.72;;;1.90;;
59169;SDS011;52474;52.236;5.114;2023-03-14T00:41:07;9.40;;;2.30;;
59169;SDS011;52474;52.236;5.114;2023-03-14T00:43:41;8.90;;;2.40;;
59169;SDS011;52474;52.236;5.114;2023-03-14T00:46:08;9.45;;;2.45;;
59169;SDS011;52474;52.236;5.114;2023-03-14T00:48:34;9.48;;;2.33;;
59169;SDS011;52474;52.236;5.114;2023-03-14T00:51:01;11.43;;;2.78;;
59169;SDS011;52474;52.236;5.114;2023-03-14T00:53:30;9.65;;;2.10;;
59169;SDS011;52474;52.236;5.114;2023-03-14T00:55:56;14.77;;;3.08;;
59169;SDS011;52474;52.236;5.114;2023-03-14T00:58:25;7.22;;;2.17;;
59169;SDS011;52474;52.236;5.114;2023-03-14T01:00:51;11.70;;;3.00;;
59169;SDS011;52474;52.236;5.114;2023-03-14T01:03:16;10.27;;;2.90;;
59169;SDS011;52474;52.236;5.114;2023-03-14T01:05:42;8.32;;;2.20;;
59169;SDS011;52474;52.236;5.114;2023-03-14T01:08:08;11.65;;;2.55;;
59169;SDS011;52474;52.236;5.114;2023-03-14T01:10:37;10.90;;;2.28;;
59169;SDS011;52474;52.236;5.114;2023-03-14T01:13:05;9.15;;;2.40;;
59169;SDS011;52474;52.236;5.114;2023-03-14T01:15:32;6.82;;;2.50;;
59169;SDS011;52474;52.236;5.114;2023-03-14T01:18:01;9.32;;;2.55;;
59169;SDS011;52474;52.236;5.114;2023-03-14T01:20:28;10.57;;;2.80;;
59169;SDS011;52474;52.236;5.114;2023-03-14T01:22:54;8.88;;;2.70;;
59169;SDS011;52474;52.236;5.114;2023-03-14T01:25:20;9.43;;;2.88;;
59169;SDS011;52474;52.236;5.114;2023-03-14T01:27:46;11.25;;;3.20;;
59169;SDS011;52474;52.236;5.114;2023-03-14T01:30:12;10.80;;;3.47;;
59169;SDS011;52474;52.236;5.114;2023-03-14T01:32:39;11.50;;;3.67;;
59169;SDS011;52474;52.236;5.114;2023-03-14T01:35:06;13.82;;;4.10;;
59169;SDS011;52474;52.236;5.114;2023-03-14T01:37:32;17.85;;;4.78;;
59169;SDS011;52474;52.236;5.114;2023-03-14T01:39:59;14.85;;;4.22;;
59169;SDS011;52474;52.236;5.114;2023-03-14T01:42:24;15.82;;;4.00;;
59169;SDS011;52474;52.236;5.114;2023-03-14T01:44:54;17.73;;;4.85;;
59169;SDS011;52474;52.236;5.114;2023-03-14T01:47:22;11.65;;;3.22;;
59169;SDS011;52474;52.236;5.114;2023-03-14T01:49:54;12.20;;;4.28;;
59169;SDS011;52474;52.236;5.114;2023-03-14T01:52:27;16.02;;;3.13;;
59169;SDS011;52474;52.236;5.114;2023-03-14T01:55:15;9.40;;;2.70;;
59169;SDS011;52474;52.236;5.114;2023-03-14T01:57:52;15.20;;;3.47;;
59169;SDS011;52474;52.236;5.114;2023-03-14T02:00:21;11.57;;;3.88;;
59169;SDS011;52474;52.236;5.114;2023-03-14T02:02:53;9.07;;;3.05;;
59169;SDS011;52474;52.236;5.114;2023-03-14T02:05:29;15.52;;;2.67;;
59169;SDS011;52474;52.236;5.114;2023-03-14T02:08:05;15.07;;;2.88;;
59169;SDS011;52474;52.236;5.114;2023-03-14T02:10:44;14.75;;;3.78;;
59169;SDS011;52474;52.236;5.114;2023-03-14T02:13:13;13.32;;;2.67;;
59169;SDS011;52474;52.236;5.114;2023-03-14T02:16:03;8.27;;;1.98;;
59169;SDS011;52474;52.236;5.114;2023-03-14T02:18:56;12.32;;;2.45;;
59169;SDS011;52474;52.236;5.114;2023-03-14T02:21:57;15.18;;;2.72;;
59169;SDS011;52474;52.236;5.114;2023-03-14T02:27:18;9.88;;;2.45;;
59169;SDS011;52474;52.236;5.114;2023-03-14T02:32:18;8.93;;;2.00;;
59169;SDS011;52474;52.236;5.114;2023-03-14T02:34:45;11.30;;;3.15;;
59169;SDS011;52474;52.236;5.114;2023-03-14T02:37:15;10.90;;;2.22;;
59169;SDS011;52474;52.236;5.114;2023-03-14T02:39:44;10.35;;;1.70;;
59169;SDS011;52474;52.236;5.114;2023-03-14T02:42:12;9.57;;;1.73;;
59169;SDS011;52474;52.236;5.114;2023-03-14T02:44:49;13.18;;;1.75;;
59169;SDS011;52474;52.236;5.114;2023-03-14T02:47:18;13.13;;;1.80;;
59169;SDS011;52474;52.236;5.114;2023-03-14T02:49:47;12.87;;;2.03;;
59169;SDS011;52474;52.236;5.114;2023-03-14T02:52:13;7.93;;;1.40;;
59169;SDS011;52474;52.236;5.114;2023-03-14T02:54:39;7.80;;;1.77;;
59169;SDS011;52474;52.236;5.114;2023-03-14T02:57:05;8.82;;;1.50;;
59169;SDS011;52474;52.236;5.114;2023-03-14T02:59:31;9.32;;;1.70;;
59169;SDS011;52474;52.236;5.114;2023-03-14T03:02:00;6.82;;;1.30;;
59169;SDS011;52474;52.236;5.114;2023-03-14T03:04:26;10.38;;;1.77;;
59169;SDS011;52474;52.236;5.114;2023-03-14T03:06:54;5.80;;;1.42;;
59169;SDS011;52474;52.236;5.114;2023-03-14T03:09:20;9.70;;;2.08;;
59169;SDS011;52474;52.236;5.114;2023-03-14T03:11:51;8.75;;;1.85;;
59169;SDS011;52474;52.236;5.114;2023-03-14T03:14:20;7.57;;;1.98;;
59169;SDS011;52474;52.236;5.114;2023-03-14T03:16:46;8.05;;;1.88;;
59169;SDS011;52474;52.236;5.114;2023-03-14T03:19:12;8.25;;;1.95;;
59169;SDS011;52474;52.236;5.114;2023-03-14T03:21:39;4.57;;;1.65;;
59169;SDS011;52474;52.236;5.114;2023-03-14T03:24:05;13.38;;;3.00;;
59169;SDS011;52474;52.236;5.114;2023-03-14T03:26:36;6.47;;;1.60;;
59169;SDS011;52474;52.236;5.114;2023-03-14T03:29:06;6.68;;;1.90;;
59169;SDS011;52474;52.236;5.114;2023-03-14T03:31:32;10.20;;;2.50;;
59169;SDS011;52474;52.236;5.114;2023-03-14T03:33:57;6.55;;;2.15;;
59169;SDS011;52474;52.236;5.114;2023-03-14T03:36:24;6.82;;;2.05;;
59169;SDS011;52474;52.236;5.114;2023-03-14T03:38:51;6.93;;;2.10;;
59169;SDS011;52474;52.236;5.114;2023-03-14T03:41:17;13.07;;;3.50;;
59169;SDS011;52474;52.236;5.114;2023-03-14T03:43:43;13.18;;;2.35;;
59169;SDS011;52474;52.236;5.114;2023-03-14T03:46:11;11.70;;;1.90;;
59169;SDS011;52474;52.236;5.114;2023-03-14T03:48:36;7.50;;;1.88;;
59169;SDS011;52474;52.236;5.114;2023-03-14T03:51:04;8.07;;;2.55;;
59169;SDS011;52474;52.236;5.114;2023-03-14T03:53:31;12.57;;;2.42;;
59169;SDS011;52474;52.236;5.114;2023-03-14T03:55:58;11.45;;;1.85;;
59169;SDS011;52474;52.236;5.114;2023-03-14T03:58:23;9.43;;;2.22;;
59169;SDS011;52474;52.236;5.114;2023-03-14T04:00:49;8.88;;;2.05;;
59169;SDS011;52474;52.236;5.114;2023-03-14T04:03:14;7.28;;;2.08;;
59169;SDS011;52474;52.236;5.114;2023-03-14T04:05:40;13.32;;;2.80;;
59169;SDS011;52474;52.236;5.114;2023-03-14T04:08:08;12.23;;;2.05;;
59169;SDS011;52474;52.236;5.114;2023-03-14T04:10:34;10.20;;;1.77;;
59169;SDS011;52474;52.236;5.114;2023-03-14T04:13:05;8.32;;;1.73;;
59169;SDS011;52474;52.236;5.114;2023-03-14T04:15:33;8.18;;;2.10;;
59169;SDS011;52474;52.236;5.114;2023-03-14T04:18:03;9.20;;;2.05;;
59169;SDS011;52474;52.236;5.114;2023-03-14T04:20:33;14.82;;;2.20;;
59169;SDS011;52474;52.236;5.114;2023-03-14T04:23:00;13.03;;;2.27;;
59169;SDS011;52474;52.236;5.114;2023-03-14T04:25:26;11.10;;;2.67;;
59169;SDS011;52474;52.236;5.114;2023-03-14T04:27:55;10.10;;;2.00;;
59169;SDS011;52474;52.236;5.114;2023-03-14T04:30:24;14.35;;;2.67;;
59169;SDS011;52474;52.236;5.114;2023-03-14T04:32:56;12.25;;;2.10;;
59169;SDS011;52474;52.236;5.114;2023-03-14T04:35:24;7.03;;;2.08;;
59169;SDS011;52474;52.236;5.114;2023-03-14T04:37:53;9.10;;;2.35;;
59169;SDS011;52474;52.236;5.114;2023-03-14T04:40:21;8.10;;;1.95;;
59169;SDS011;52474;52.236;5.114;2023-03-14T04:42:48;11.32;;;2.60;;
59169;SDS011;52474;52.236;5.114;2023-03-14T04:45:14;8.88;;;3.10;;
59169;SDS011;52474;52.236;5.114;2023-03-14T04:47:42;9.45;;;2.03;;
59169;SDS011;52474;52.236;5.114;2023-03-14T04:52:37;13.20;;;2.15;;
59169;SDS011;52474;52.236;5.114;2023-03-14T04:55:03;9.57;;;2.35;;
59169;SDS011;52474;52.236;5.114;2023-03-14T04:57:30;13.10;;;2.63;;
59169;SDS011;52474;52.236;5.114;2023-03-14T04:59:57;7.47;;;1.77;;
59169;SDS011;52474;52.236;5.114;2023-03-14T05:03:01;8.90;;;2.30;;
59169;SDS011;52474;52.236;5.114;2023-03-14T05:05:45;10.57;;;2.78;;
59169;SDS011;52474;52.236;5.114;2023-03-14T05:08:30;11.07;;;2.10;;
59169;SDS011;52474;52.236;5.114;2023-03-14T05:11:18;14.50;;;2.40;;
59169;SDS011;52474;52.236;5.114;2023-03-14T05:13:47;9.55;;;2.13;;
59169;SDS011;52474;52.236;5.114;2023-03-14T05:16:33;11.40;;;2.60;;
59169;SDS011;52474;52.236;5.114;2023-03-14T05:19:04;10.05;;;2.30;;
59169;SDS011;52474;52.236;5.114;2023-03-14T05:21:38;13.82;;;2.40;;
59169;SDS011;52474;52.236;5.114;2023-03-14T05:24:26;7.63;;;1.95;;
59169;SDS011;52474;52.236;5.114;2023-03-14T05:27:01;10.40;;;2.28;;
59169;SDS011;52474;52.236;5.114;2023-03-14T05:29:58;8.55;;;2.22;;
59169;SDS011;52474;52.236;5.114;2023-03-14T05:32:37;8.98;;;2.35;;
59169;SDS011;52474;52.236;5.114;2023-03-14T05:35:31;14.60;;;2.72;;
59169;SDS011;52474;52.236;5.114;2023-03-14T05:38:10;10.93;;;2.70;;
59169;SDS011;52474;52.236;5.114;2023-03-14T05:40:44;11.50;;;3.40;;
59169;SDS011;52474;52.236;5.114;2023-03-14T05:43:37;9.65;;;2.63;;
59169;SDS011;52474;52.236;5.114;2023-03-14T05:46:26;8.25;;;2.55;;
59169;SDS011;52474;52.236;5.114;2023-03-14T05:49:04;13.70;;;3.20;;
59169;SDS011;52474;52.236;5.114;2023-03-14T05:51:42;10.93;;;2.83;;
59169;SDS011;52474;52.236;5.114;2023-03-14T05:54:34;8.27;;;2.63;;
59169;SDS011;52474;52.236;5.114;2023-03-14T05:57:08;7.97;;;2.75;;
59169;SDS011;52474;52.236;5.114;2023-03-14T05:59:51;7.50;;;3.05;;
59169;SDS011;52474;52.236;5.114;2023-03-14T06:02:35;7.80;;;3.08;;
59169;SDS011;52474;52.236;5.114;2023-03-14T06:05:11;9.77;;;3.63;;
59169;SDS011;52474;52.236;5.114;2023-03-14T06:07:37;10.57;;;3.10;;
59169;SDS011;52474;52.236;5.114;2023-03-14T06:10:04;9.23;;;3.00;;
59169;SDS011;52474;52.236;5.114;2023-03-14T06:12:30;9.05;;;3.25;;
59169;SDS011;52474;52.236;5.114;2023-03-14T06:14:57;7.85;;;3.13;;
59169;SDS011;52474;52.236;5.114;2023-03-14T06:17:24;6.72;;;2.30;;
59169;SDS011;52474;52.236;5.114;2023-03-14T06:20:00;4.32;;;1.30;;
59169;SDS011;52474;52.236;5.114;2023-03-14T06:22:28;6.20;;;1.00;;
59169;SDS011;52474;52.236;5.114;2023-03-14T06:24:54;4.32;;;0.90;;
59169;SDS011;52474;52.236;5.114;2023-03-14T06:27:21;2.05;;;0.80;;
59169;SDS011;52474;52.236;5.114;2023-03-14T06:29:50;3.30;;;1.05;;
59169;SDS011;52474;52.236;5.114;2023-03-14T06:32:16;4.68;;;1.30;;
59169;SDS011;52474;52.236;5.114;2023-03-14T06:34:44;1.95;;;0.98;;
59169;SDS011;52474;52.236;5.114;2023-03-14T06:37:10;5.07;;;1.45;;
59169;SDS011;52474;52.236;5.114;2023-03-14T06:39:36;6.13;;;1.55;;
59169;SDS011;52474;52.236;5.114;2023-03-14T06:42:10;2.45;;;1.10;;
59169;SDS011;52474;52.236;5.114;2023-03-14T06:44:38;2.63;;;1.45;;
59169;SDS011;52474;52.236;5.114;2023-03-14T06:47:04;2.13;;;1.40;;
59169;SDS011;52474;52.236;5.114;2023-03-14T06:49:31;3.88;;;1.17;;
59169;SDS011;52474;52.236;5.114;2023-03-14T06:51:59;4.45;;;1.13;;
59169;SDS011;52474;52.236;5.114;2023-03-14T06:54:25;2.85;;;0.90;;
59169;SDS011;52474;52.236;5.114;2023-03-14T06:56:51;5.20;;;0.82;;
59169;SDS011;52474;52.236;5.114;2023-03-14T06:59:17;0.90;;;0.50;;
59169;SDS011;52474;52.236;5.114;2023-03-14T07:01:46;2.85;;;0.70;;
59169;SDS011;52474;52.236;5.114;2023-03-14T07:04:14;2.70;;;0.80;;
59169;SDS011;52474;52.236;5.114;2023-03-14T07:09:11;2.85;;;0.80;;
59169;SDS011;52474;52.236;5.114;2023-03-14T07:14:06;2.55;;;1.08;;
59169;SDS011;52474;52.236;5.114;2023-03-14T07:16:32;1.17;;;0.50;;
59169;SDS011;52474;52.236;5.114;2023-03-14T07:18:59;3.60;;;0.63;;
59169;SDS011;52474;52.236;5.114;2023-03-14T07:21:25;2.50;;;0.60;;
59169;SDS011;52474;52.236;5.114;2023-03-14T07:23:54;0.90;;;0.50;;
59169;SDS011;52474;52.236;5.114;2023-03-14T07:26:21;3.10;;;0.50;;
59169;SDS011;52474;52.236;5.114;2023-03-14T07:28:50;3.67;;;0.60;;
59169;SDS011;52474;52.236;5.114;2023-03-14T07:31:18;4.38;;;0.70;;
59169;SDS011;52474;52.236;5.114;2023-03-14T07:33:45;1.67;;;0.50;;
59169;SDS011;52474;52.236;5.114;2023-03-14T07:36:11;2.13;;;0.40;;
59169;SDS011;52474;52.236;5.114;2023-03-14T07:38:41;3.20;;;0.52;;
59169;SDS011;52474;52.236;5.114;2023-03-14T07:41:27;0.30;;;0.30;;
59169;SDS011;52474;52.236;5.114;2023-03-14T07:44:11;2.70;;;0.70;;
59169;SDS011;52474;52.236;5.114;2023-03-14T07:46:37;2.90;;;0.60;;
59169;SDS011;52474;52.236;5.114;2023-03-14T07:49:02;8.90;;;1.08;;
59169;SDS011;52474;52.236;5.114;2023-03-14T07:51:28;5.68;;;1.40;;
59169;SDS011;52474;52.236;5.114;2023-03-14T07:53:54;7.93;;;1.20;;
59169;SDS011;52474;52.236;5.114;2023-03-14T07:56:20;6.07;;;1.13;;
59169;SDS011;52474;52.236;5.114;2023-03-14T07:58:46;4.40;;;1.10;;
59169;SDS011;52474;52.236;5.114;2023-03-14T08:01:11;6.43;;;1.33;;
59169;SDS011;52474;52.236;5.114;2023-03-14T08:03:37;4.22;;;0.73;;
59169;SDS011;52474;52.236;5.114;2023-03-14T08:06:03;5.20;;;0.73;;
59169;SDS011;52474;52.236;5.114;2023-03-14T08:08:29;7.43;;;1.15;;
59169;SDS011;52474;52.236;5.114;2023-03-14T08:11:04;4.82;;;0.75;;
59169;SDS011;52474;52.236;5.114;2023-03-14T08:13:34;7.43;;;1.38;;
59169;SDS011;52474;52.236;5.114;2023-03-14T08:16:00;3.70;;;0.55;;
59169;SDS011;52474;52.236;5.114;2023-03-14T08:18:26;4.82;;;0.73;;
59169;SDS011;52474;52.236;5.114;2023-03-14T08:20:52;6.97;;;0.90;;
59169;SDS011;52474;52.236;5.114;2023-03-14T08:23:18;2.10;;;1.00;;
59169;SDS011;52474;52.236;5.114;2023-03-14T08:25:48;3.65;;;0.77;;
59169;SDS011;52474;52.236;5.114;2023-03-14T08:28:15;2.78;;;0.50;;
59169;SDS011;52474;52.236;5.114;2023-03-14T08:30:41;3.03;;;0.47;;
59169;SDS011;52474;52.236;5.114;2023-03-14T08:33:10;5.50;;;0.70;;
59169;SDS011;52474;52.236;5.114;2023-03-14T08:35:45;7.57;;;0.90;;
59169;SDS011;52474;52.236;5.114;2023-03-14T08:38:11;3.10;;;0.45;;
59169;SDS011;52474;52.236;5.114;2023-03-14T08:40:37;6.88;;;0.95;;
59169;SDS011;52474;52.236;5.114;2023-03-14T08:43:06;4.05;;;0.65;;
59169;SDS011;52474;52.236;5.114;2023-03-14T08:45:31;3.10;;;1.02;;
59169;SDS011;52474;52.236;5.114;2023-03-14T08:48:00;6.35;;;0.80;;
59169;SDS011;52474;52.236;5.114;2023-03-14T08:50:27;8.65;;;0.90;;
59169;SDS011;52474;52.236;5.114;2023-03-14T08:52:53;6.43;;;1.10;;
59169;SDS011;52474;52.236;5.114;2023-03-14T08:55:19;6.05;;;1.33;;
59169;SDS011;52474;52.236;5.114;2023-03-14T08:57:45;11.07;;;1.60;;
59169;SDS011;52474;52.236;5.114;2023-03-14T09:00:12;11.23;;;1.10;;
59169;SDS011;52474;52.236;5.114;2023-03-14T09:02:41;12.38;;;1.40;;
59169;SDS011;52474;52.236;5.114;2023-03-14T09:05:08;11.25;;;1.40;;
59169;SDS011;52474;52.236;5.114;2023-03-14T09:07:37;9.67;;;1.50;;
59169;SDS011;52474;52.236;5.114;2023-03-14T09:10:04;8.23;;;2.15;;
59169;SDS011;52474;52.236;5.114;2023-03-14T09:12:31;10.93;;;1.40;;
59169;SDS011;52474;52.236;5.114;2023-03-14T09:14:59;11.70;;;2.07;;
59169;SDS011;52474;52.236;5.114;2023-03-14T09:17:26;13.32;;;1.60;;
59169;SDS011;52474;52.236;5.114;2023-03-14T09:19:52;14.52;;;2.05;;
59169;SDS011;52474;52.236;5.114;2023-03-14T09:22:18;11.27;;;2.03;;
59169;SDS011;52474;52.236;5.114;2023-03-14T09:24:44;17.20;;;1.83;;
59169;SDS011;52474;52.236;5.114;2023-03-14T09:27:09;13.43;;;1.70;;
59169;SDS011;52474;52.236;5.114;2023-03-14T09:29:35;16.00;;;2.50;;
59169;SDS011;52474;52.236;5.114;2023-03-14T09:32:01;12.60;;;1.77;;
59169;SDS011;52474;52.236;5.114;2023-03-14T09:34:28;11.90;;;2.13;;
59169;SDS011;52474;52.236;5.114;2023-03-14T09:36:57;17.27;;;2.75;;
59169;SDS011;52474;52.236;5.114;2023-03-14T09:39:23;16.50;;;2.60;;
59169;SDS011;52474;52.236;5.114;2023-03-14T09:41:50;18.10;;;2.90;;
59169;SDS011;52474;52.236;5.114;2023-03-14T09:44:21;18.75;;;2.80;;
59169;SDS011;52474;52.236;5.114;2023-03-14T09:46:53;11.95;;;1.42;;
59169;SDS011;52474;52.236;5.114;2023-03-14T09:51:57;13.68;;;1.98;;
59169;SDS011;52474;52.236;5.114;2023-03-14T09:56:55;14.05;;;1.88;;
59169;SDS011;52474;52.236;5.114;2023-03-14T09:59:21;13.10;;;2.00;;
59169;SDS011;52474;52.236;5.114;2023-03-14T10:01:47;17.85;;;1.95;;
59169;SDS011;52474;52.236;5.114;2023-03-14T10:04:15;11.90;;;1.98;;
59169;SDS011;52474;52.236;5.114;2023-03-14T10:06:42;11.65;;;1.73;;
59169;SDS011;52474;52.236;5.114;2023-03-14T10:09:11;12.73;;;2.95;;
59169;SDS011;52474;52.236;5.114;2023-03-14T10:11:51;14.85;;;1.65;;
59169;SDS011;52474;52.236;5.114;2023-03-14T10:14:33;11.95;;;2.15;;
59169;SDS011;52474;52.236;5.114;2023-03-14T10:17:08;12.27;;;3.45;;
59169;SDS011;52474;52.236;5.114;2023-03-14T10:22:23;17.85;;;2.60;;
59169;SDS011;52474;52.236;5.114;2023-03-14T10:24:56;14.40;;;2.00;;
59169;SDS011;52474;52.236;5.114;2023-03-14T10:27:34;10.98;;;2.20;;
59169;SDS011;52474;52.236;5.114;2023-03-14T10:30:01;13.43;;;1.90;;
59169;SDS011;52474;52.236;5.114;2023-03-14T10:35:05;16.85;;;2.42;;
59169;SDS011;52474;52.236;5.114;2023-03-14T10:37:50;16.30;;;2.03;;
59169;SDS011;52474;52.236;5.114;2023-03-14T10:40:26;16.33;;;2.92;;
59169;SDS011;52474;52.236;5.114;2023-03-14T10:43:04;17.48;;;3.17;;
59169;SDS011;52474;52.236;5.114;2023-03-14T10:48:05;15.45;;;2.67;;
59169;SDS011;52474;52.236;5.114;2023-03-14T10:54:11;13.95;;;3.13;;
59169;SDS011;52474;52.236;5.114;2023-03-14T10:56:35;19.45;;;2.50;;
59169;SDS011;52474;52.236;5.114;2023-03-14T10:59:12;18.48;;;2.78;;
59169;SDS011;52474;52.236;5.114;2023-03-14T11:07:39;10.38;;;1.73;;
59169;SDS011;52474;52.236;5.114;2023-03-14T11:20:55;11.20;;;1.73;;
59169;SDS011;52474;52.236;5.114;2023-03-14T11:26:46;6.70;;;1.48;;
59169;SDS011;52474;52.236;5.114;2023-03-14T11:29:20;9.30;;;1.65;;
59169;SDS011;52474;52.236;5.114;2023-03-14T11:31:54;13.15;;;2.00;;
59169;SDS011;52474;52.236;5.114;2023-03-14T11:34:27;11.25;;;1.80;;
59169;SDS011;52474;52.236;5.114;2023-03-14T11:36:59;6.25;;;1.13;;
59169;SDS011;52474;52.236;5.114;2023-03-14T11:39:29;12.45;;;1.92;;
59169;SDS011;52474;52.236;5.114;2023-03-14T11:42:04;8.68;;;1.88;;
59169;SDS011;52474;52.236;5.114;2023-03-14T11:44:37;6.88;;;1.45;;
59169;SDS011;52474;52.236;5.114;2023-03-14T11:47:24;6.65;;;1.45;;
59169;SDS011;52474;52.236;5.114;2023-03-14T11:52:50;8.05;;;1.55;;
59169;SDS011;52474;52.236;5.114;2023-03-14T11:55:31;5.18;;;1.20;;
59169;SDS011;52474;52.236;5.114;2023-03-14T11:58:01;8.30;;;1.48;;
59169;SDS011;52474;52.236;5.114;2023-03-14T12:00:35;7.00;;;1.05;;
59169;SDS011;52474;52.236;5.114;2023-03-14T12:03:17;5.95;;;1.20;;
59169;SDS011;52474;52.236;5.114;2023-03-14T12:05:50;12.80;;;1.40;;
59169;SDS011;52474;52.236;5.114;2023-03-14T12:08:42;7.38;;;1.20;;
59169;SDS011;52474;52.236;5.114;2023-03-14T12:14:17;6.90;;;1.70;;
59169;SDS011;52474;52.236;5.114;2023-03-14T12:16:45;8.43;;;1.77;;
59169;SDS011;52474;52.236;5.114;2023-03-14T12:19:13;5.88;;;1.42;;
59169;SDS011;52474;52.236;5.114;2023-03-14T12:24:50;3.83;;;0.90;;
59169;SDS011;52474;52.236;5.114;2023-03-14T12:38:10;5.38;;;0.95;;
59169;SDS011;52474;52.236;5.114;2023-03-14T12:43:42;8.68;;;1.30;;
59169;SDS011;52474;52.236;5.114;2023-03-14T12:48:34;8.77;;;1.40;;
59169;SDS011;52474;52.236;5.114;2023-03-14T12:51:03;4.88;;;0.98;;
59169;SDS011;52474;52.236;5.114;2023-03-14T13:01:53;5.13;;;0.75;;
59169;SDS011;52474;52.236;5.114;2023-03-14T13:04:28;5.03;;;0.90;;
59169;SDS011;52474;52.236;5.114;2023-03-14T13:07:03;6.43;;;1.00;;
59169;SDS011;52474;52.236;5.114;2023-03-14T13:12:12;4.57;;;1.02;;
59169;SDS011;52474;52.236;5.114;2023-03-14T13:14:46;6.82;;;1.27;;
59169;SDS011;52474;52.236;5.114;2023-03-14T13:17:15;6.03;;;1.40;;
59169;SDS011;52474;52.236;5.114;2023-03-14T13:19:51;5.47;;;1.40;;
59169;SDS011;52474;52.236;5.114;2023-03-14T13:22:23;6.10;;;1.63;;
59169;SDS011;52474;52.236;5.114;2023-03-14T13:25:00;6.45;;;0.90;;
59169;SDS011;52474;52.236;5.114;2023-03-14T13:27:31;5.47;;;0.98;;
59169;SDS011;52474;52.236;5.114;2023-03-14T13:29:59;7.10;;;1.10;;
59169;SDS011;52474;52.236;5.114;2023-03-14T13:32:49;5.57;;;1.23;;
59169;SDS011;52474;52.236;5.114;2023-03-14T13:35:16;4.10;;;0.90;;
59169;SDS011;52474;52.236;5.114;2023-03-14T13:37:44;7.30;;;1.20;;
59169;SDS011;52474;52.236;5.114;2023-03-14T13:40:18;10.05;;;1.13;;
59169;SDS011;52474;52.236;5.114;2023-03-14T13:43:01;8.00;;;1.35;;
59169;SDS011;52474;52.236;5.114;2023-03-14T13:46:13;7.00;;;0.90;;
59169;SDS011;52474;52.236;5.114;2023-03-14T13:48:54;5.15;;;1.27;;
59169;SDS011;52474;52.236;5.114;2023-03-14T13:51:24;2.78;;;0.85;;
59169;SDS011;52474;52.236;5.114;2023-03-14T13:53:53;9.27;;;1.35;;
59169;SDS011;52474;52.236;5.114;2023-03-14T13:56:22;5.68;;;0.75;;
59169;SDS011;52474;52.236;5.114;2023-03-14T13:58:52;6.93;;;1.02;;
59169;SDS011;52474;52.236;5.114;2023-03-14T14:01:19;3.83;;;0.93;;
59169;SDS011;52474;52.236;5.114;2023-03-14T14:03:49;6.18;;;0.90;;
59169;SDS011;52474;52.236;5.114;2023-03-14T14:06:22;3.55;;;1.33;;
59169;SDS011;52474;52.236;5.114;2023-03-14T14:09:01;4.22;;;0.70;;
59169;SDS011;52474;52.236;5.114;2023-03-14T14:11:37;4.47;;;1.33;;
59169;SDS011;52474;52.236;5.114;2023-03-14T14:14:10;5.18;;;0.88;;
59169;SDS011;52474;52.236;5.114;2023-03-14T14:16:42;2.92;;;0.80;;
59169;SDS011;52474;52.236;5.114;2023-03-14T14:19:10;4.00;;;1.05;;
59169;SDS011;52474;52.236;5.114;2023-03-14T14:21:37;4.85;;;0.82;;
59169;SDS011;52474;52.236;5.114;2023-03-14T14:24:03;4.25;;;0.70;;
59169;SDS011;52474;52.236;5.114;2023-03-14T14:26:30;5.25;;;0.90;;
59169;SDS011;52474;52.236;5.114;2023-03-14T14:29:02;3.85;;;1.00;;
59169;SDS011;52474;52.236;5.114;2023-03-14T14:31:30;8.20;;;1.20;;
59169;SDS011;52474;52.236;5.114;2023-03-14T14:34:01;5.10;;;1.50;;
59169;SDS011;52474;52.236;5.114;2023-03-14T14:36:37;3.28;;;1.13;;
59169;SDS011;52474;52.236;5.114;2023-03-14T14:39:09;9.68;;;1.30;;
59169;SDS011;52474;52.236;5.114;2023-03-14T14:41:39;6.50;;;1.52;;
59169;SDS011;52474;52.236;5.114;2023-03-14T14:44:29;5.95;;;0.95;;
59169;SDS011;52474;52.236;5.114;2023-03-14T14:47:02;3.70;;;1.20;;
59169;SDS011;52474;52.236;5.114;2023-03-14T14:49:29;6.15;;;1.15;;
59169;SDS011;52474;52.236;5.114;2023-03-14T14:52:04;4.80;;;0.90;;
59169;SDS011;52474;52.236;5.114;2023-03-14T14:54:43;11.17;;;1.90;;
59169;SDS011;52474;52.236;5.114;2023-03-14T14:57:19;4.75;;;0.93;;
59169;SDS011;52474;52.236;5.114;2023-03-14T15:00:00;7.50;;;0.80;;
59169;SDS011;52474;52.236;5.114;2023-03-14T15:03:05;3.88;;;1.00;;
59169;SDS011;52474;52.236;5.114;2023-03-14T15:05:25;4.65;;;0.93;;
59169;SDS011;52474;52.236;5.114;2023-03-14T15:07:55;4.03;;;1.05;;
59169;SDS011;52474;52.236;5.114;2023-03-14T15:10:23;6.95;;;1.25;;
59169;SDS011;52474;52.236;5.114;2023-03-14T15:12:50;8.63;;;0.93;;
59169;SDS011;52474;52.236;5.114;2023-03-14T15:15:16;5.85;;;0.85;;
59169;SDS011;52474;52.236;5.114;2023-03-14T15:17:43;4.95;;;1.00;;
59169;SDS011;52474;52.236;5.114;2023-03-14T15:20:10;3.97;;;1.23;;
59169;SDS011;52474;52.236;5.114;2023-03-14T15:22:39;5.55;;;1.20;;
59169;SDS011;52474;52.236;5.114;2023-03-14T15:25:06;5.85;;;1.35;;
59169;SDS011;52474;52.236;5.114;2023-03-14T15:27:33;4.90;;;0.95;;
59169;SDS011;52474;52.236;5.114;2023-03-14T15:30:12;6.03;;;1.30;;
59169;SDS011;52474;52.236;5.114;2023-03-14T15:32:39;5.45;;;0.80;;
59169;SDS011;52474;52.236;5.114;2023-03-14T15:35:05;3.88;;;1.10;;
59169;SDS011;52474;52.236;5.114;2023-03-14T15:37:33;5.68;;;1.20;;
59169;SDS011;52474;52.236;5.114;2023-03-14T15:40:00;5.03;;;0.90;;
59169;SDS011;52474;52.236;5.114;2023-03-14T15:42:29;4.60;;;0.93;;
59169;SDS011;52474;52.236;5.114;2023-03-14T15:44:55;3.90;;;1.13;;
59169;SDS011;52474;52.236;5.114;2023-03-14T15:47:21;6.22;;;0.77;;
59169;SDS011;52474;52.236;5.114;2023-03-14T15:49:47;5.20;;;1.48;;
59169;SDS011;52474;52.236;5.114;2023-03-14T15:52:13;6.90;;;1.10;;
59169;SDS011;52474;52.236;5.114;2023-03-14T15:54:38;3.25;;;0.70;;
59169;SDS011;52474;52.236;5.114;2023-03-14T15:57:04;5.65;;;1.20;;
59169;SDS011;52474;52.236;5.114;2023-03-14T15:59:31;4.05;;;1.08;;
59169;SDS011;52474;52.236;5.114;2023-03-14T16:01:57;5.28;;;1.10;;
59169;SDS011;52474;52.236;5.114;2023-03-14T16:04:23;6.05;;;1.10;;
59169;SDS011;52474;52.236;5.114;2023-03-14T16:06:49;5.60;;;1.90;;
59169;SDS011;52474;52.236;5.114;2023-03-14T16:09:14;7.68;;;1.20;;
59169;SDS011;52474;52.236;5.114;2023-03-14T16:11:40;11.82;;;1.52;;
59169;SDS011;52474;52.236;5.114;2023-03-14T16:14:06;2.95;;;1.13;;
59169;SDS011;52474;52.236;5.114;2023-03-14T16:16:32;4.43;;;0.93;;
59169;SDS011;52474;52.236;5.114;2023-03-14T16:18:58;2.40;;;0.57;;
59169;SDS011;52474;52.236;5.114;2023-03-14T16:21:24;4.00;;;0.73;;
59169;SDS011;52474;52.236;5.114;2023-03-14T16:23:50;5.65;;;0.88;;
59169;SDS011;52474;52.236;5.114;2023-03-14T16:26:17;3.10;;;0.90;;
59169;SDS011;52474;52.236;5.114;2023-03-14T16:28:44;9.73;;;1.00;;